Time;durP1;ratioP1;P1;durP2;ratioP2;P2;SDS_P1;SDS_P2;PMS_P1;PMS_P2;Temp;Humidity;BMP_temperature;BMP_pressure;BME280_temperature;BME280_humidity;BME280_pressure;Samples;Min_cycle;Max_cycle;Signal;HPM_P1;HPM_P2
2022/09/05 00:04:55;;;;;;;4.40;2.90;;;;;;;17.23;59.26;100351.63;10346643;28;20178;-59
2022/09/05 00:10:06;;;;;;;3.58;2.92;;;;;;;17.22;59.47;100336.75;10346645;28;20052;-58
2022/09/05 00:15:12;;;;;;;7.07;2.97;;;;;;;17.27;59.31;100340.69;10347631;28;20120;-59
2022/09/05 00:20:24;;;;;;;6.57;3.72;;;;;;;16.82;60.07;100344.34;10345007;28;20049;-58
2022/09/05 00:26:02;;;;;;;4.55;2.63;;;;;;;16.74;60.47;100347.63;10347503;28;20073;-58
2022/09/05 00:31:32;;;;;;;5.07;3.45;;;;;;;16.64;60.22;100343.16;10358983;28;20152;-58
2022/09/05 00:36:54;;;;;;;5.68;3.10;;;;;;;16.56;60.77;100338.50;10346167;28;20932;-58
2022/09/05 00:42:03;;;;;;;4.22;3.35;;;;;;;16.58;60.67;100335.72;10344754;28;20411;-58
2022/09/05 00:47:08;;;;;;;4.25;3.33;;;;;;;16.38;60.98;100328.47;10344691;28;20176;-59
2022/09/05 00:52:31;;;;;;;5.75;3.58;;;;;;;16.41;61.42;100334.34;10345266;28;20486;-59
2022/09/05 00:57:54;;;;;;;5.10;3.65;;;;;;;16.07;62.07;100338.75;10345368;28;20496;-58
2022/09/05 01:03:08;;;;;;;4.32;3.30;;;;;;;16.14;62.08;100332.03;10344203;28;20060;-58
2022/09/05 01:08:41;;;;;;;5.05;3.10;;;;;;;16.31;61.39;100324.63;10344090;28;20058;-58
2022/09/05 01:13:53;;;;;;;8.43;3.85;;;;;;;16.24;61.38;100330.38;10342345;28;20490;-58
2022/09/05 01:19:14;;;;;;;6.55;4.35;;;;;;;15.97;62.24;100342.19;10345604;28;20055;-58
2022/09/05 01:24:35;;;;;;;5.03;3.50;;;;;;;15.83;62.26;100332.69;10344762;28;20062;-58
2022/09/05 01:29:49;;;;;;;4.25;3.03;;;;;;;15.95;62.32;100331.78;10344257;28;20054;-59
2022/09/05 01:35:00;;;;;;;4.53;3.20;;;;;;;16.08;61.87;100337.78;10344350;28;20050;-58
2022/09/05 01:40:29;;;;;;;5.20;3.38;;;;;;;16.02;61.44;100343.53;10343964;28;20053;-58
2022/09/05 01:45:59;;;;;;;5.63;3.33;;;;;;;16.00;61.37;100340.16;10345209;28;20081;-58
2022/09/05 01:51:19;;;;;;;6.75;3.42;;;;;;;16.02;61.97;100335.63;10326975;28;20057;-58
2022/09/05 01:56:37;;;;;;;6.32;3.10;;;;;;;16.09;61.32;100339.47;10344051;28;20124;-58
2022/09/05 02:02:24;;;;;;;5.67;3.00;;;;;;;16.03;61.55;100337.31;10344734;28;20056;-58
2022/09/05 02:07:41;;;;;;;7.40;4.07;;;;;;;15.72;61.12;100344.97;10395357;28;20497;-58
2022/09/05 02:13:00;;;;;;;5.63;3.72;;;;;;;15.28;62.86;100341.16;10350115;28;20064;-58
2022/09/05 02:18:09;;;;;;;5.07;3.63;;;;;;;15.42;62.28;100337.53;10351774;28;20053;-58
2022/09/05 02:23:25;;;;;;;6.95;3.70;;;;;;;15.56;62.09;100336.53;10351084;28;20056;-58
2022/09/05 02:28:45;;;;;;;5.57;3.30;;;;;;;15.57;62.02;100335.59;10350276;28;20088;-58
2022/09/05 02:33:58;;;;;;;4.75;3.55;;;;;;;15.45;61.94;100341.72;10349883;28;20527;-58
2022/09/05 02:39:19;;;;;;;4.25;3.30;;;;;;;15.40;62.17;100342.06;10351036;28;20053;-58
2022/09/05 02:44:50;;;;;;;4.63;3.20;;;;;;;15.40;61.91;100348.19;10356393;28;20058;-58
2022/09/05 02:50:43;;;;;;;4.47;3.40;;;;;;;15.38;62.00;100346.59;10359380;28;20424;-58
2022/09/05 02:56:31;;;;;;;6.28;3.53;;;;;;;15.31;62.03;100333.03;10359147;28;20066;-58
2022/09/05 03:02:13;;;;;;;4.07;2.92;;;;;;;15.35;61.74;100334.47;10356329;28;20054;-58
2022/09/05 03:08:17;;;;;;;7.85;3.65;;;;;;;15.24;61.58;100334.44;10353435;28;20857;-58
2022/09/05 03:13:47;;;;;;;4.95;4.07;;;;;;;14.75;62.88;100338.03;10359949;28;20171;-58
2022/09/05 03:19:32;;;;;;;4.93;3.72;;;;;;;14.69;63.22;100331.44;10348954;28;21415;-58
2022/09/05 03:25:12;;;;;;;4.50;3.08;;;;;;;14.77;62.97;100344.03;10350744;28;20158;-58
2022/09/05 03:30:18;;;;;;;4.43;2.97;;;;;;;14.92;62.46;100338.53;10351234;28;20057;-58
2022/09/05 03:35:51;;;;;;;6.25;3.40;;;;;;;14.95;62.58;100345.38;10351186;28;20059;-58
2022/09/05 03:41:08;;;;;;;6.03;4.28;;;;;;;14.80;62.33;100339.41;10349717;28;20594;-58
2022/09/05 03:46:22;;;;;;;5.85;3.85;;;;;;;14.53;62.86;100351.88;10349353;28;20085;-58
2022/09/05 03:51:35;;;;;;;4.60;3.40;;;;;;;14.60;62.87;100345.22;10349118;28;20046;-58
2022/09/05 03:57:34;;;;;;;4.25;3.25;;;;;;;14.67;62.92;100346.50;10347740;28;20060;-58
2022/09/05 04:03:02;;;;;;;4.25;3.15;;;;;;;14.65;62.69;100344.91;10348617;28;20085;-58
2022/09/05 04:08:36;;;;;;;6.82;3.60;;;;;;;14.66;62.68;100341.31;10349644;28;20973;-58
2022/09/05 04:13:59;;;;;;;6.70;3.33;;;;;;;14.66;62.29;100349.22;10349382;28;20422;-58
2022/09/05 04:19:12;;;;;;;6.28;3.30;;;;;;;14.59;62.61;100352.28;10349732;28;20058;-58
2022/09/05 04:24:16;;;;;;;7.82;3.95;;;;;;;14.56;62.17;100352.50;10346708;28;20049;-58
2022/09/05 04:29:47;;;;;;;60.38;5.85;;;;;;;14.02;63.08;100348.34;10347497;28;20046;-58
2022/09/05 04:35:13;;;;;;;45.00;5.85;;;;;;;13.99;63.69;100356.44;10347848;28;20434;-58
2022/09/05 04:40:33;;;;;;;30.08;5.22;;;;;;;13.92;63.61;100360.44;10349719;28;20575;-58
2022/09/05 04:45:46;;;;;;;6.13;3.95;;;;;;;14.04;64.06;100362.25;10345124;28;20058;-58
2022/09/05 04:51:03;;;;;;;5.63;4.32;;;;;;;14.16;63.58;100369.31;10347465;28;20465;-58
2022/09/05 04:56:19;;;;;;;5.03;4.05;;;;;;;14.22;63.17;100368.03;10346156;28;20054;-59
2022/09/05 05:01:31;;;;;;;30.77;5.50;;;;;;;14.29;63.09;100370.13;10346057;28;20054;-58
2022/09/05 05:07:39;;;;;;;5.40;4.15;;;;;;;14.34;62.79;100375.94;10347279;28;20049;-58
2022/09/05 05:13:24;;;;;;;39.33;5.90;;;;;;;14.39;62.55;100384.34;10343557;28;20486;-58
2022/09/05 05:18:51;;;;;;;31.90;5.38;;;;;;;14.42;62.45;100386.78;10345737;28;20037;-58
2022/09/05 05:24:13;;;;;;;15.85;4.57;;;;;;;14.43;62.62;100391.09;10345991;28;20057;-58
2022/09/05 05:29:14;;;;;;;63.90;6.32;;;;;;;14.52;62.36;100394.91;10346749;28;20050;-58
2022/09/05 05:34:33;;;;;;;67.28;6.10;;;;;;;14.56;62.57;100388.50;10346642;28;20061;-58
2022/09/05 05:39:43;;;;;;;42.80;5.97;;;;;;;14.63;62.07;100388.94;10345834;28;20057;-58
2022/09/05 05:44:52;;;;;;;59.78;6.25;;;;;;;14.56;62.04;100391.97;10342203;28;20608;-59
2022/09/05 05:50:15;;;;;;;4.70;3.80;;;;;;;14.65;62.09;100397.56;10345533;28;20746;-58
2022/09/05 05:55:29;;;;;;;5.03;3.60;;;;;;;15.03;61.49;100406.25;10344224;28;20053;-58
2022/09/05 06:00:54;;;;;;;4.35;3.45;;;;;;;15.42;60.74;100406.06;10344872;28;20054;-58
2022/09/05 06:06:20;;;;;;;4.22;3.40;;;;;;;15.52;60.45;100412.38;10346071;28;20050;-58
2022/09/05 06:11:44;;;;;;;4.00;3.40;;;;;;;15.85;60.07;100409.06;10344751;28;20056;-58
2022/09/05 06:17:24;;;;;;;4.13;3.30;;;;;;;16.00;59.74;100418.47;10343641;28;20064;-58
2022/09/05 06:22:31;;;;;;;5.55;3.75;;;;;;;16.28;59.30;100398.78;10342606;28;20053;-58
2022/09/05 06:27:51;;;;;;;4.20;3.40;;;;;;;16.51;58.88;100405.81;10342570;28;20413;-58
2022/09/05 06:33:40;;;;;;;4.38;3.42;;;;;;;16.65;59.06;100400.31;10343168;28;20409;-58
2022/09/05 06:39:04;;;;;;;4.40;3.28;;;;;;;16.68;58.65;100400.91;10342865;28;20057;-58
2022/09/05 06:44:15;;;;;;;5.15;3.58;;;;;;;16.79;58.55;100397.44;10343703;28;20046;-58
2022/09/05 06:49:26;;;;;;;5.75;4.13;;;;;;;16.70;58.90;100408.72;10344101;28;20160;-58
2022/09/05 06:54:52;;;;;;;5.32;3.75;;;;;;;16.56;59.15;100412.44;10341738;28;20152;-59
2022/09/05 07:00:19;;;;;;;4.65;3.55;;;;;;;16.49;59.58;100411.19;10343741;28;20061;-58
2022/09/05 07:05:52;;;;;;;5.93;3.90;;;;;;;16.75;59.19;100403.94;10344523;28;20050;-58
2022/09/05 07:10:59;;;;;;;7.47;4.90;;;;;;;16.86;59.19;100415.34;10343022;28;20042;-58
2022/09/05 07:16:46;;;;;;;5.72;3.95;;;;;;;17.09;59.09;100418.81;10344241;28;20499;-58
2022/09/05 07:22:06;;;;;;;7.72;5.15;;;;;;;17.21;59.20;100407.28;10342330;28;20516;-58
2022/09/05 07:27:36;;;;;;;6.32;5.32;;;;;;;17.42;58.27;100410.88;10340463;28;20526;-59
2022/09/05 07:33:01;;;;;;;7.63;5.05;;;;;;;17.46;58.40;100414.97;10348313;28;20375;-58
2022/09/05 07:38:13;;;;;;;7.53;4.95;;;;;;;17.89;57.92;100404.38;10349037;28;20049;-58
2022/09/05 07:43:22;;;;;;;9.68;5.05;;;;;;;18.78;55.46;100410.00;10350939;28;20128;-58
2022/09/05 07:48:32;;;;;;;8.20;4.25;;;;;;;19.57;53.57;100397.72;10344539;28;20053;-59
2022/09/05 07:53:40;;;;;;;8.18;3.85;;;;;;;20.21;51.96;100401.53;10344158;28;20522;-59
2022/09/05 07:59:07;;;;;;;7.28;3.45;;;;;;;21.11;50.32;100392.03;10348740;28;20453;-59
2022/09/05 08:04:25;;;;;;;8.40;3.50;;;;;;;21.24;48.38;100391.69;10348624;28;20064;-59
2022/09/05 08:09:37;;;;;;;7.70;3.00;;;;;;;21.55;47.41;100387.78;10347224;28;20042;-59
2022/09/05 08:15:15;;;;;;;8.27;3.17;;;;;;;21.70;46.38;100383.59;10348890;28;20049;-59
2022/09/05 08:20:37;;;;;;;6.47;3.30;;;;;;;21.96;45.96;100389.84;10347342;28;20131;-59
2022/09/05 08:25:55;;;;;;;7.05;3.47;;;;;;;22.17;45.25;100374.38;10348945;28;20485;-59
2022/09/05 08:31:08;;;;;;;9.23;3.42;;;;;;;22.43;45.03;100377.06;10342541;28;20056;-59
2022/09/05 08:36:30;;;;;;;8.35;3.50;;;;;;;22.73;44.41;100371.28;10337358;28;20054;-59
2022/09/05 08:41:48;;;;;;;8.93;2.83;;;;;;;23.13;43.44;100365.28;10341303;28;20058;-59
2022/09/05 08:47:06;;;;;;;6.43;2.75;;;;;;;23.55;42.31;100367.94;10343002;28;20057;-59
2022/09/05 08:52:43;;;;;;;8.63;3.13;;;;;;;23.31;42.49;100355.31;10347115;28;20864;-59
2022/09/05 08:57:45;;;;;;;8.15;3.17;;;;;;;23.65;42.40;100356.13;10344332;28;20054;-59
2022/09/05 09:03:05;;;;;;;5.35;2.83;;;;;;;23.66;42.36;100336.41;10341596;28;20053;-59
2022/09/05 09:08:48;;;;;;;4.95;2.80;;;;;;;23.96;41.34;100334.94;10346836;28;20053;-59
2022/09/05 09:14:20;;;;;;;5.28;2.60;;;;;;;24.36;40.19;100328.72;10345202;28;20495;-59
2022/09/05 09:19:44;;;;;;;5.88;2.50;;;;;;;24.62;39.89;100327.47;10360193;28;20050;-58
2022/09/05 09:25:07;;;;;;;5.32;2.33;;;;;;;25.01;38.28;100316.81;10345920;28;20046;-59
2022/09/05 09:30:17;;;;;;;;;;;;;;;25.16;39.33;100324.94;10346653;28;20046;-59
2022/09/05 09:35:31;;;;;;;8.30;2.45;;;;;;;25.56;37.39;100309.50;10344342;28;19932;-59
2022/09/05 09:40:52;;;;;;;6.22;2.33;;;;;;;25.51;36.75;100305.69;10344301;28;20525;-59
2022/09/05 09:46:20;;;;;;;5.85;1.90;;;;;;;25.95;37.04;100303.97;10344588;28;20060;-58
2022/09/05 09:51:36;;;;;;;5.20;2.00;;;;;;;26.07;36.28;100291.00;10342202;28;20812;-59
2022/09/05 09:56:51;;;;;;;6.07;2.10;;;;;;;25.95;36.51;100285.22;10345513;28;20064;-59
2022/09/05 10:02:19;;;;;;;8.73;2.10;;;;;;;26.08;35.76;100279.25;10345113;28;20054;-58
2022/09/05 10:08:20;;;;;;;7.03;2.30;;;;;;;26.14;35.71;100273.16;10345593;28;20061;-59
2022/09/05 10:14:00;;;;;;;12.40;2.30;;;;;;;26.26;35.43;100263.66;10343825;28;20050;-59
2022/09/05 10:19:23;;;;;;;7.18;2.00;;;;;;;26.47;35.86;100259.19;10344501;28;20498;-59
2022/09/05 10:24:58;;;;;;;7.30;2.00;;;;;;;26.66;35.28;100244.41;10344743;28;20053;-59
2022/09/05 10:30:25;;;;;;;6.82;1.92;;;;;;;26.93;34.52;100246.41;10343781;28;20049;-59
2022/09/05 10:35:50;;;;;;;5.32;1.85;;;;;;;27.23;34.63;100241.78;10341352;28;20053;-59
2022/09/05 10:40:54;;;;;;;5.32;1.80;;;;;;;27.28;34.23;100229.44;10338907;28;20965;-59
2022/09/05 10:46:45;;;;;;;3.05;1.60;;;;;;;27.52;32.70;100224.72;10342676;28;20045;-59
2022/09/05 10:52:18;;;;;;;4.97;1.63;;;;;;;27.80;31.48;100222.88;10339343;28;20133;-59
2022/09/05 10:57:41;;;;;;;2.60;1.45;;;;;;;27.54;31.88;100220.81;10344164;28;20145;-59
2022/09/05 11:02:43;;;;;;;4.10;1.58;;;;;;;27.74;31.88;100207.56;10343285;28;20498;-59
2022/09/05 11:08:04;;;;;;;5.15;1.67;;;;;;;27.81;31.82;100197.69;10349775;28;20820;-59
2022/09/05 11:13:24;;;;;;;3.28;1.60;;;;;;;28.00;31.35;100188.91;10350407;28;20060;-59
2022/09/05 11:18:55;;;;;;;6.95;1.65;;;;;;;27.29;31.91;100182.78;10349837;28;20406;-59
2022/09/05 11:24:29;;;;;;;3.35;1.63;;;;;;;27.43;31.85;100183.72;10350199;28;20668;-59
2022/09/05 11:29:42;;;;;;;3.08;1.60;;;;;;;27.44;31.49;100180.00;10347813;28;20072;-59
2022/09/05 11:34:53;;;;;;;3.10;1.60;;;;;;;27.07;32.38;100167.66;10350398;28;20137;-59
2022/09/05 11:40:43;;;;;;;3.90;1.67;;;;;;;27.45;31.13;100173.59;10348761;28;20053;-59
2022/09/05 11:46:26;;;;;;;3.80;1.57;;;;;;;27.50;31.33;100165.81;10349316;28;20046;-59
2022/09/05 11:51:48;;;;;;;5.38;1.73;;;;;;;27.56;31.53;100162.34;10349913;28;20054;-59
2022/09/05 11:57:30;;;;;;;4.57;1.60;;;;;;;27.58;30.63;100159.44;10349274;28;20058;-59
2022/09/05 12:03:00;;;;;;;5.68;1.80;;;;;;;27.82;30.51;100153.63;10348272;28;20414;-59
2022/09/05 12:08:23;;;;;;;12.18;2.17;;;;;;;28.03;30.31;100150.88;10348040;28;20457;-59
2022/09/05 12:13:52;;;;;;;3.20;1.52;;;;;;;28.25;30.06;100147.91;10347099;28;20445;-59
2022/09/05 12:19:11;;;;;;;4.78;1.50;;;;;;;28.57;29.43;100140.16;10355939;28;20485;-59
2022/09/05 12:24:48;;;;;;;3.17;1.70;;;;;;;28.68;28.59;100137.72;10348007;28;20050;-59
2022/09/05 12:30:14;;;;;;;4.22;1.50;;;;;;;28.59;29.01;100128.16;10347239;28;20061;-59
2022/09/05 12:35:37;;;;;;;3.45;1.60;;;;;;;28.42;28.07;100121.47;10347674;28;20050;-59
2022/09/05 12:41:08;;;;;;;6.57;1.70;;;;;;;28.61;27.93;100118.03;10347208;28;20901;-59
2022/09/05 12:47:06;;;;;;;3.90;1.67;;;;;;;28.60;27.49;100108.31;10347798;28;20049;-59
2022/09/05 12:52:38;;;;;;;2.95;1.55;;;;;;;28.86;27.18;100099.47;10346937;28;20053;-59
2022/09/05 12:57:47;;;;;;;3.72;1.42;;;;;;;28.88;27.00;100095.53;10345841;28;20064;-59
2022/09/05 13:03:26;;;;;;;2.85;1.50;;;;;;;29.03;24.69;100098.84;10346806;28;20502;-59
2022/09/05 13:08:46;;;;;;;4.28;1.50;;;;;;;29.05;24.57;100094.09;10346686;28;20514;-59
2022/09/05 13:14:15;;;;;;;3.50;1.48;;;;;;;29.05;25.20;100077.13;10346863;28;20049;-58
2022/09/05 13:19:42;;;;;;;4.22;1.55;;;;;;;29.30;25.37;100077.28;10345929;28;20511;-59
2022/09/05 13:24:56;;;;;;;3.38;1.52;;;;;;;29.37;25.12;100084.34;10344974;28;20046;-59
2022/09/05 13:30:09;;;;;;;2.95;1.35;;;;;;;29.42;24.96;100083.75;10341467;28;20052;-59
2022/09/05 13:35:37;;;;;;;5.30;1.70;;;;;;;29.47;25.05;100078.56;10346431;28;20054;-59
2022/09/05 13:41:03;;;;;;;2.90;1.25;;;;;;;28.95;25.24;100080.19;10345458;28;20046;-59
2022/09/05 13:46:09;;;;;;;4.18;1.60;;;;;;;28.85;24.76;100066.31;10346276;28;20056;-59
2022/09/05 13:51:32;;;;;;;3.25;1.40;;;;;;;28.47;25.67;100065.22;10344505;28;20053;-59
2022/09/05 13:56:45;;;;;;;3.53;1.50;;;;;;;28.47;25.52;100059.00;10344527;28;20053;-59
2022/09/05 14:02:23;;;;;;;1.90;1.33;;;;;;;28.74;24.60;100055.31;10341738;28;20064;-59
2022/09/05 14:07:50;;;;;;;2.83;1.33;;;;;;;28.73;23.69;100046.41;10344439;28;20049;-59
2022/09/05 14:13:02;;;;;;;4.38;1.30;;;;;;;28.97;24.09;100043.13;10352234;28;20525;-59
2022/09/05 14:18:24;;;;;;;5.30;1.40;;;;;;;28.85;23.37;100047.47;10344272;28;20054;-59
2022/09/05 14:23:42;;;;;;;2.53;1.40;;;;;;;29.25;23.24;100031.31;10343099;28;20514;-59
2022/09/05 14:28:55;;;;;;;3.42;1.48;;;;;;;29.49;23.21;100026.09;10341623;28;20049;-59
2022/09/05 14:34:12;;;;;;;5.32;1.40;;;;;;;29.47;22.99;100021.97;10344366;28;20054;-59
2022/09/05 14:39:39;;;;;;;3.30;1.42;;;;;;;29.67;23.03;100022.72;10342401;28;20054;-59
2022/09/05 14:45:04;;;;;;;3.45;1.40;;;;;;;29.77;22.07;100015.84;10344729;28;21050;-59
2022/09/05 14:50:37;;;;;;;2.72;1.35;;;;;;;29.49;22.35;100015.31;10343000;28;20096;-59
2022/09/05 14:56:06;;;;;;;2.83;1.40;;;;;;;29.53;22.49;100010.31;10342827;28;20058;-59
2022/09/05 15:01:29;;;;;;;3.10;1.40;;;;;;;29.38;22.83;99999.75;10342839;28;20521;-58
2022/09/05 15:07:07;;;;;;;2.05;1.20;;;;;;;29.48;22.66;99999.38;10342272;28;20049;-59
2022/09/05 15:12:16;;;;;;;4.10;1.40;;;;;;;29.75;22.72;99993.66;10343148;28;20056;-59
2022/09/05 15:17:43;;;;;;;2.67;1.27;;;;;;;29.73;22.73;99997.59;10342618;28;20054;-59
2022/09/05 15:22:51;;;;;;;3.03;1.50;;;;;;;29.58;22.55;99999.75;10342668;28;20093;-59
2022/09/05 15:27:58;;;;;;;2.58;1.45;;;;;;;29.67;22.46;99995.75;10341850;28;20463;-59
2022/09/05 15:33:18;;;;;;;5.50;1.50;;;;;;;29.11;22.84;99991.97;10343249;28;20058;-59
2022/09/05 15:38:38;;;;;;;2.90;1.45;;;;;;;29.03;22.98;99984.94;10342446;28;20144;-59
2022/09/05 15:44:03;;;;;;;3.30;1.40;;;;;;;29.16;22.77;99981.38;10340891;28;20061;-59
2022/09/05 15:49:43;;;;;;;5.55;1.52;;;;;;;29.25;21.93;99972.03;10343009;28;20056;-59
2022/09/05 15:55:01;;;;;;;3.15;1.30;;;;;;;29.37;22.39;99973.88;10349687;28;20498;-59
2022/09/05 16:00:07;;;;;;;4.20;1.48;;;;;;;29.13;22.44;99960.25;10349739;28;20049;-59
2022/09/05 16:05:15;;;;;;;2.13;1.30;;;;;;;28.91;22.53;99965.06;10348513;28;20143;-59
2022/09/05 16:10:37;;;;;;;2.40;1.40;;;;;;;28.70;22.99;99962.56;10347633;28;20045;-59
2022/09/05 16:15:59;;;;;;;5.00;1.50;;;;;;;28.52;23.33;99965.88;10349043;28;20151;-59
2022/09/05 16:21:21;;;;;;;5.75;1.42;;;;;;;28.32;24.05;99959.63;10347630;28;20057;-59
2022/09/05 16:26:48;;;;;;;4.13;1.30;;;;;;;28.11;24.71;99957.94;10349212;28;20558;-59
2022/09/05 16:32:08;;;;;;;2.53;1.42;;;;;;;27.89;24.82;99952.91;10348785;28;20056;-58
2022/09/05 16:37:13;;;;;;;2.35;1.30;;;;;;;28.18;24.88;99949.84;10346187;28;20103;-59
2022/09/05 16:42:26;;;;;;;4.43;1.40;;;;;;;28.50;24.73;99949.13;10348187;28;20058;-60
2022/09/05 16:48:31;;;;;;;2.15;1.30;;;;;;;28.50;24.82;99950.97;10347865;28;20049;-59
2022/09/05 16:53:40;;;;;;;2.08;1.40;;;;;;;28.25;24.83;99940.78;10344912;28;20112;-58
2022/09/05 16:59:06;;;;;;;4.97;1.30;;;;;;;28.18;25.19;99941.78;10346591;28;20469;-59
2022/09/05 17:04:17;;;;;;;2.42;1.40;;;;;;;28.04;25.48;99943.63;10346399;28;20879;-59
2022/09/05 17:09:36;;;;;;;3.15;1.42;;;;;;;27.80;26.15;99932.63;10347655;28;20050;-59
2022/09/05 17:14:45;;;;;;;2.45;1.58;;;;;;;27.58;26.81;99929.22;10346371;28;20048;-59
2022/09/05 17:19:50;;;;;;;4.20;1.35;;;;;;;27.31;27.24;99928.25;10345429;28;20429;-59
2022/09/05 17:25:31;;;;;;;2.78;1.50;;;;;;;27.09;27.98;99929.34;10346602;28;20441;-59
2022/09/05 17:30:53;;;;;;;5.15;1.48;;;;;;;26.89;28.42;99928.41;10343161;28;20050;-59
2022/09/05 17:36:27;;;;;;;4.97;1.83;;;;;;;26.69;28.86;99930.09;10344656;28;20049;-59
2022/09/05 17:41:56;;;;;;;4.78;1.73;;;;;;;26.51;29.25;99921.69;10345721;28;20081;-59
2022/09/05 17:47:17;;;;;;;4.18;1.60;;;;;;;26.19;28.82;99923.06;10338713;28;20462;-59
2022/09/05 17:52:27;;;;;;;5.40;1.63;;;;;;;25.92;29.51;99926.47;10344364;28;20057;-59
2022/09/05 17:57:34;;;;;;;1.95;1.23;;;;;;;25.64;29.62;99938.91;10342605;28;20058;-59
2022/09/05 18:02:53;;;;;;;3.15;1.48;;;;;;;25.46;30.46;99950.03;10344466;28;20064;-59
2022/09/05 18:07:56;;;;;;;3.43;1.50;;;;;;;25.35;30.79;99944.31;10343659;28;20142;-59
2022/09/05 18:13:15;;;;;;;7.97;1.63;;;;;;;25.01;31.34;99956.41;10344099;28;20053;-59
2022/09/05 18:18:37;;;;;;;5.15;1.50;;;;;;;24.91;32.11;99957.66;10339141;28;20061;-59
2022/09/05 18:24:03;;;;;;;5.82;2.35;;;;;;;24.82;32.85;99958.75;10343207;28;20060;-59
2022/09/05 18:29:25;;;;;;;8.25;2.28;;;;;;;24.69;33.52;99966.56;10343594;28;20417;-59
2022/09/05 18:35:19;;;;;;;6.28;1.90;;;;;;;24.49;34.14;99984.09;10343861;28;20057;-59
2022/09/05 18:41:05;;;;;;;3.63;1.80;;;;;;;24.22;34.54;99983.66;10343929;28;20580;-59
2022/09/05 18:46:28;;;;;;;4.93;1.80;;;;;;;24.05;35.39;99986.56;10344852;28;20052;-59
2022/09/05 18:51:33;;;;;;;4.95;1.73;;;;;;;23.83;36.19;99992.69;10344302;28;20141;-59
2022/09/05 18:56:49;;;;;;;5.47;1.88;;;;;;;23.61;36.93;99990.78;10343195;28;20124;-59
2022/09/05 19:02:39;;;;;;;4.70;2.22;;;;;;;23.35;37.39;99991.84;10342851;28;20054;-59
2022/09/05 19:08:06;;;;;;;8.05;1.83;;;;;;;23.11;37.55;99996.41;10343798;28;20088;-59
2022/09/05 19:13:18;;;;;;;3.50;1.90;;;;;;;22.88;37.84;99993.63;10341798;28;20517;-59
2022/09/05 19:18:22;;;;;;;6.00;2.10;;;;;;;22.65;37.92;99990.81;10342345;28;20046;-59
2022/09/05 19:23:32;;;;;;;5.97;1.90;;;;;;;22.32;38.55;99986.44;10342704;28;20066;-59
2022/09/05 19:28:37;;;;;;;4.18;1.95;;;;;;;22.24;38.66;99990.94;10351385;28;20430;-59
2022/09/05 19:34:11;;;;;;;3.40;1.58;;;;;;;22.07;38.95;99984.72;10350373;28;20053;-59
2022/09/05 19:39:40;;;;;;;5.22;2.10;;;;;;;21.91;39.65;99982.00;10349434;28;20065;-59
2022/09/05 19:45:05;;;;;;;2.72;1.60;;;;;;;21.68;39.61;99976.44;10348564;28;20519;-59
2022/09/05 19:50:28;;;;;;;2.67;1.65;;;;;;;21.55;40.60;99980.56;10350169;28;20056;-59
2022/09/05 19:55:34;;;;;;;3.00;1.70;;;;;;;21.52;40.43;99975.53;10349319;28;20060;-59
2022/09/05 20:00:39;;;;;;;5.43;1.50;;;;;;;21.27;41.31;99982.56;10348224;28;20054;-59
2022/09/05 20:05:41;;;;;;;3.10;1.70;;;;;;;21.23;41.70;99980.38;10348757;28;20050;-59
2022/09/05 20:10:42;;;;;;;3.58;1.75;;;;;;;21.24;41.93;99971.41;10347936;28;20049;-59
2022/09/05 20:15:44;;;;;;;3.83;1.90;;;;;;;21.16;42.24;99969.53;10347658;28;20918;-59
2022/09/05 20:20:58;;;;;;;7.47;3.88;;;;;;;20.76;42.79;99975.44;10344480;28;20057;-59
2022/09/05 20:26:00;;;;;;;8.18;3.72;;;;;;;20.79;42.92;99977.78;10346876;28;20050;-59
2022/09/05 20:31:23;;;;;;;7.63;4.85;;;;;;;20.69;43.25;99977.03;10337999;28;20057;-59
2022/09/05 20:36:36;;;;;;;5.97;4.00;;;;;;;20.55;43.17;99980.22;10346001;28;20085;-59
2022/09/05 20:42:00;;;;;;;5.35;3.47;;;;;;;20.37;43.47;99976.75;10347018;28;20077;-59
2022/09/05 20:47:38;;;;;;;3.95;2.90;;;;;;;20.07;44.17;99993.06;10345774;28;20392;-59
2022/09/05 20:53:08;;;;;;;5.78;2.75;;;;;;;19.93;44.49;99975.81;10344440;28;20064;-59
2022/09/05 20:58:32;;;;;;;5.68;2.20;;;;;;;20.03;44.24;99979.25;10347261;28;20057;-59
2022/09/05 21:03:39;;;;;;;4.22;2.33;;;;;;;20.08;44.77;99989.41;10345244;28;20644;-59
2022/09/05 21:08:46;;;;;;;3.78;1.83;;;;;;;20.10;44.13;99984.78;10343049;28;20056;-59
2022/09/05 21:13:50;;;;;;;4.10;2.08;;;;;;;20.16;44.30;99986.84;10346153;28;20502;-59
2022/09/05 21:18:54;;;;;;;5.32;1.90;;;;;;;20.12;44.39;99988.97;10342758;28;20061;-59
2022/09/05 21:24:05;;;;;;;3.42;2.08;;;;;;;20.00;44.88;99984.88;10345873;28;20058;-59
2022/09/05 21:29:24;;;;;;;4.95;2.10;;;;;;;19.70;45.29;99990.47;10346085;28;20133;-59
2022/09/05 21:34:39;;;;;;;3.28;1.90;;;;;;;19.72;45.55;99985.84;10342631;28;20073;-59
2022/09/05 21:39:50;;;;;;;7.88;2.30;;;;;;;19.64;45.61;99990.22;10344011;28;20104;-58
2022/09/05 21:45:00;;;;;;;5.07;1.88;;;;;;;19.62;45.58;99993.03;10343800;28;20045;-59
2022/09/05 21:50:26;;;;;;;4.82;2.10;;;;;;;19.72;45.46;99992.97;10342796;28;20058;-59
2022/09/05 21:55:34;;;;;;;4.30;2.28;;;;;;;19.74;45.53;99993.66;10344757;28;20414;-59
2022/09/05 22:00:55;;;;;;;4.03;2.35;;;;;;;19.67;45.66;99979.31;10342572;28;20049;-59
2022/09/05 22:05:57;;;;;;;3.28;2.00;;;;;;;19.01;46.55;99983.91;10342108;28;20057;-59
2022/09/05 22:11:10;;;;;;;5.30;2.25;;;;;;;18.74;47.15;99976.69;10341895;28;20046;-59
2022/09/05 22:16:13;;;;;;;4.32;2.03;;;;;;;18.93;46.72;99971.34;10343260;28;20052;-59
2022/09/05 22:21:21;;;;;;;4.53;2.10;;;;;;;19.01;47.11;99968.81;10340519;28;20072;-58
2022/09/05 22:26:41;;;;;;;4.88;2.00;;;;;;;19.00;47.16;99961.84;10340265;28;20801;-59
2022/09/05 22:32:04;;;;;;;4.57;2.05;;;;;;;18.99;46.91;99954.03;10340715;28;20387;-59
2022/09/05 22:37:05;;;;;;;4.30;2.20;;;;;;;18.81;47.34;99966.38;10340409;28;20054;-58
2022/09/05 22:42:07;;;;;;;3.53;2.20;;;;;;;18.33;48.34;99954.03;10341596;28;20096;-58
2022/09/05 22:47:11;;;;;;;5.30;2.30;;;;;;;18.33;48.39;99946.09;10343682;28;20057;-58
2022/09/05 22:52:13;;;;;;;4.97;2.05;;;;;;;18.39;48.62;99944.69;10338680;28;20971;-59
2022/09/05 22:57:14;;;;;;;3.33;2.10;;;;;;;18.28;48.46;99942.19;10342405;28;20066;-58
2022/09/05 23:02:16;;;;;;;3.28;2.15;;;;;;;18.13;49.00;99956.78;10346941;28;20100;-59
2022/09/05 23:07:19;;;;;;;4.80;2.13;;;;;;;18.27;49.24;99965.19;10349959;28;20042;-58
2022/09/05 23:12:21;;;;;;;4.63;2.47;;;;;;;18.42;49.02;99970.88;10348918;28;20504;-58
2022/09/05 23:17:22;;;;;;;5.35;2.42;;;;;;;18.41;48.91;99971.84;10349782;28;20056;-58
2022/09/05 23:22:24;;;;;;;4.90;2.67;;;;;;;18.36;49.35;99977.56;10348978;28;20061;-59
2022/09/05 23:27:27;;;;;;;6.35;2.50;;;;;;;18.40;49.38;99983.44;10347302;28;21903;-59
2022/09/05 23:32:28;;;;;;;4.50;2.60;;;;;;;18.34;49.48;99984.81;10350663;28;20063;-58
2022/09/05 23:42:53;;;;;;;5.13;2.40;;;;;;;17.63;50.62;99967.41;10345972;28;20053;-63
2022/09/05 23:47:56;;;;;;;3.47;2.15;;;;;;;17.62;50.68;99976.34;10349572;28;20050;-64
2022/09/05 23:53:02;;;;;;;5.07;2.17;;;;;;;17.89;50.73;99972.22;10349447;28;20646;-64
2022/09/05 23:58:04;;;;;;;5.80;2.25;;;;;;;17.85;50.80;99979.59;10348778;28;20139;-64
